This is the latest recevied weather packets stored in our database for station/object F4ETJ-1. If no packets are shown the sender has not sent any weather packets the latest 10 day(s).
| Time | Temp. | Humidity | Pressure | Rain* | Wind** | Luminosity | Snow |
|---|---|---|---|---|---|---|---|
| 1787660710 | 26.67° C | 61% | 1009.2 hPa | 0 mm | - | - | - |
| 1787660349 | 27.22° C | 61% | 1009.2 hPa | 0 mm | - | - | - |
| 1787659989 | 27.22° C | 63% | 1009.2 hPa | 0 mm | - | - | - |
| 1787659629 | 26.11° C | 66% | 1009.3 hPa | 0 mm | - | - | - |
| 1787659268 | 26.11° C | 68% | 1009.3 hPa | 0 mm | - | - | - |
| 1787658908 | 25.56° C | 68% | 1009.3 hPa | 0 mm | - | - | - |
| 1787658548 | 26.11° C | 65% | 1009.2 hPa | 0 mm | - | - | - |
| 1787658187 | 26.11° C | 67% | 1009.2 hPa | 0 mm | - | - | - |
| 1787657827 | 26.11° C | 67% | 1009.3 hPa | 0 mm | - | - | - |
| 1787657467 | 25.56° C | 68% | 1009.3 hPa | 0 mm | - | - | - |
| 1787657106 | 25.56° C | 70% | 1009.3 hPa | 0 mm | - | - | - |
| 1787656746 | 25.56° C | 70% | 1009.2 hPa | 0 mm | - | - | - |
| 1787656386 | 25° C | 75% | 1009.3 hPa | 0 mm | - | - | - |
| 1787656025 | 24.44° C | 74% | 1009.3 hPa | 0 mm | - | - | - |
| 1787655665 | 25° C | 73% | 1009.3 hPa | 0 mm | - | - | - |
| 1787655305 | 24.44° C | 74% | 1009.3 hPa | 0 mm | - | - | - |
| 1787654944 | 24.44° C | 75% | 1009.3 hPa | 0 mm | - | - | - |
| 1787654584 | 23.89° C | 78% | 1009.3 hPa | 0 mm | - | - | - |
| 1787654224 | 23.33° C | 78% | 1009.4 hPa | 0 mm | - | - | - |
| 1787653863 | 23.33° C | 78% | 1009.4 hPa | 0 mm | - | - | - |
| 1787653503 | 22.78° C | 80% | 1009.4 hPa | 0 mm | - | - | - |
| 1787653143 | 22.78° C | 80% | 1009.5 hPa | 0 mm | - | - | - |
| 1787652782 | 22.78° C | 80% | 1009.5 hPa | 0 mm | - | - | - |
| 1787652422 | 22.78° C | 81% | 1009.4 hPa | 0 mm | - | - | - |
| 1787652062 | 22.22° C | 82% | 1009.3 hPa | 0 mm | - | - | - |
* Rain latest hour (hover to see other rain measurements)
** Current wind speed in m/s (hover to see current wind gust speed)